sensor_id;sensor_type;location;lat;lon;timestamp;temperature;humidity
62904;DHT22;49000;50.698;13.322;2022-12-07T00:01:14;0.80;99.90
62904;DHT22;49000;50.698;13.322;2022-12-07T00:03:40;0.40;99.90
62904;DHT22;49000;50.698;13.322;2022-12-07T00:06:08;0.40;99.90
62904;DHT22;49000;50.698;13.322;2022-12-07T00:08:34;0.60;99.90
62904;DHT22;49000;50.698;13.322;2022-12-07T00:11:04;0.90;99.90
62904;DHT22;49000;50.698;13.322;2022-12-07T00:13:30;0.90;99.90
62904;DHT22;49000;50.698;13.322;2022-12-07T00:15:59;0.60;99.90
62904;DHT22;49000;50.698;13.322;2022-12-07T00:18:25;0.40;99.90
62904;DHT22;49000;50.698;13.322;2022-12-07T00:20:50;0.80;99.90
62904;DHT22;49000;50.698;13.322;2022-12-07T00:23:16;0.70;99.90
62904;DHT22;49000;50.698;13.322;2022-12-07T00:25:41;1.00;99.90
62904;DHT22;49000;50.698;13.322;2022-12-07T00:28:07;0.40;99.90
62904;DHT22;49000;50.698;13.322;2022-12-07T00:30:34;0.70;99.90
62904;DHT22;49000;50.698;13.322;2022-12-07T00:33:00;0.70;99.90
62904;DHT22;49000;50.698;13.322;2022-12-07T00:35:25;1.00;99.90
62904;DHT22;49000;50.698;13.322;2022-12-07T00:37:51;0.80;99.90
62904;DHT22;49000;50.698;13.322;2022-12-07T00:40:16;1.10;99.90
62904;DHT22;49000;50.698;13.322;2022-12-07T00:42:42;0.90;99.90
62904;DHT22;49000;50.698;13.322;2022-12-07T00:45:08;1.00;99.90
62904;DHT22;49000;50.698;13.322;2022-12-07T00:47:33;0.90;99.90
62904;DHT22;49000;50.698;13.322;2022-12-07T00:49:59;0.60;99.90
62904;DHT22;49000;50.698;13.322;2022-12-07T00:52:25;0.90;99.90
62904;DHT22;49000;50.698;13.322;2022-12-07T00:54:50;1.00;99.90
62904;DHT22;49000;50.698;13.322;2022-12-07T00:57:16;1.00;99.90
62904;DHT22;49000;50.698;13.322;2022-12-07T00:59:41;0.80;99.90
62904;DHT22;49000;50.698;13.322;2022-12-07T01:02:07;1.00;99.90
62904;DHT22;49000;50.698;13.322;2022-12-07T01:04:34;0.90;99.90
62904;DHT22;49000;50.698;13.322;2022-12-07T01:06:59;0.80;99.90
62904;DHT22;49000;50.698;13.322;2022-12-07T01:09:25;0.60;99.90
62904;DHT22;49000;50.698;13.322;2022-12-07T01:11:50;0.50;99.90
62904;DHT22;49000;50.698;13.322;2022-12-07T01:14:16;0.70;99.90
62904;DHT22;49000;50.698;13.322;2022-12-07T01:16:41;0.80;99.90
62904;DHT22;49000;50.698;13.322;2022-12-07T01:19:07;0.50;99.90
62904;DHT22;49000;50.698;13.322;2022-12-07T01:21:34;0.80;99.90
62904;DHT22;49000;50.698;13.322;2022-12-07T01:24:00;0.80;99.90
62904;DHT22;49000;50.698;13.322;2022-12-07T01:26:26;0.20;99.90
62904;DHT22;49000;50.698;13.322;2022-12-07T01:28:53;0.90;99.90
62904;DHT22;49000;50.698;13.322;2022-12-07T01:31:22;0.90;99.90
62904;DHT22;49000;50.698;13.322;2022-12-07T01:33:54;0.60;99.90
62904;DHT22;49000;50.698;13.322;2022-12-07T01:36:29;0.60;99.90
62904;DHT22;49000;50.698;13.322;2022-12-07T01:38:58;0.40;99.90
62904;DHT22;49000;50.698;13.322;2022-12-07T01:41:27;0.90;99.90
62904;DHT22;49000;50.698;13.322;2022-12-07T01:46:33;0.20;99.90
62904;DHT22;49000;50.698;13.322;2022-12-07T01:48:59;0.70;99.90
62904;DHT22;49000;50.698;13.322;2022-12-07T01:51:25;0.80;99.90
62904;DHT22;49000;50.698;13.322;2022-12-07T01:53:52;0.80;99.90
62904;DHT22;49000;50.698;13.322;2022-12-07T01:56:20;0.80;99.90
62904;DHT22;49000;50.698;13.322;2022-12-07T01:58:49;0.70;99.90
62904;DHT22;49000;50.698;13.322;2022-12-07T02:01:15;0.80;99.90
62904;DHT22;49000;50.698;13.322;2022-12-07T02:03:42;0.70;99.90
62904;DHT22;49000;50.698;13.322;2022-12-07T02:06:11;0.90;99.90
62904;DHT22;49000;50.698;13.322;2022-12-07T02:08:37;0.70;99.90
62904;DHT22;49000;50.698;13.322;2022-12-07T02:11:05;0.90;99.90
62904;DHT22;49000;50.698;13.322;2022-12-07T02:13:34;0.40;99.90
62904;DHT22;49000;50.698;13.322;2022-12-07T02:16:12;0.70;99.90
62904;DHT22;49000;50.698;13.322;2022-12-07T02:21:37;0.20;99.90
62904;DHT22;49000;50.698;13.322;2022-12-07T02:27:21;0.50;99.90
62904;DHT22;49000;50.698;13.322;2022-12-07T02:30:07;0.40;99.90
62904;DHT22;49000;50.698;13.322;2022-12-07T02:32:51;0.60;99.90
62904;DHT22;49000;50.698;13.322;2022-12-07T02:35:20;0.50;99.90
62904;DHT22;49000;50.698;13.322;2022-12-07T02:37:49;0.60;99.90
62904;DHT22;49000;50.698;13.322;2022-12-07T02:40:20;0.70;99.90
62904;DHT22;49000;50.698;13.322;2022-12-07T02:42:51;0.50;99.90
62904;DHT22;49000;50.698;13.322;2022-12-07T02:45:21;0.70;99.90
62904;DHT22;49000;50.698;13.322;2022-12-07T02:47:51;0.50;99.90
62904;DHT22;49000;50.698;13.322;2022-12-07T02:50:21;0.60;99.90
62904;DHT22;49000;50.698;13.322;2022-12-07T02:52:47;0.60;99.90
62904;DHT22;49000;50.698;13.322;2022-12-07T02:55:13;0.60;99.90
62904;DHT22;49000;50.698;13.322;2022-12-07T03:00:25;0.50;99.90
62904;DHT22;49000;50.698;13.322;2022-12-07T03:03:00;0.00;99.90
62904;DHT22;49000;50.698;13.322;2022-12-07T03:05:54;0.20;99.90
62904;DHT22;49000;50.698;13.322;2022-12-07T03:08:44;0.60;99.90
62904;DHT22;49000;50.698;13.322;2022-12-07T03:11:13;0.50;99.90
62904;DHT22;49000;50.698;13.322;2022-12-07T03:14:02;0.40;99.90
62904;DHT22;49000;50.698;13.322;2022-12-07T03:16:44;0.10;99.90
62904;DHT22;49000;50.698;13.322;2022-12-07T03:19:17;0.10;99.90
62904;DHT22;49000;50.698;13.322;2022-12-07T03:21:47;0.00;99.90
62904;DHT22;49000;50.698;13.322;2022-12-07T03:24:18;0.10;99.90
62904;DHT22;49000;50.698;13.322;2022-12-07T03:26:49;-0.40;99.90
62904;DHT22;49000;50.698;13.322;2022-12-07T03:29:28;0.00;99.90
62904;DHT22;49000;50.698;13.322;2022-12-07T03:32:09;0.10;99.90
62904;DHT22;49000;50.698;13.322;2022-12-07T03:35:03;-0.50;99.90
62904;DHT22;49000;50.698;13.322;2022-12-07T03:37:39;0.00;99.90
62904;DHT22;49000;50.698;13.322;2022-12-07T03:40:17;0.00;99.90
62904;DHT22;49000;50.698;13.322;2022-12-07T03:42:44;0.00;99.90
62904;DHT22;49000;50.698;13.322;2022-12-07T03:45:10;-0.20;99.90
62904;DHT22;49000;50.698;13.322;2022-12-07T03:48:00;-0.30;99.90
62904;DHT22;49000;50.698;13.322;2022-12-07T03:50:41;-0.20;99.90
62904;DHT22;49000;50.698;13.322;2022-12-07T03:53:19;-0.30;99.90
62904;DHT22;49000;50.698;13.322;2022-12-07T03:55:46;-0.20;99.90
62904;DHT22;49000;50.698;13.322;2022-12-07T03:58:16;-0.30;99.90
62904;DHT22;49000;50.698;13.322;2022-12-07T04:00:43;-0.20;99.90
62904;DHT22;49000;50.698;13.322;2022-12-07T04:03:09;-0.20;99.90
62904;DHT22;49000;50.698;13.322;2022-12-07T04:05:36;-0.20;99.90
62904;DHT22;49000;50.698;13.322;2022-12-07T04:08:01;-0.10;99.90
62904;DHT22;49000;50.698;13.322;2022-12-07T04:10:27;0.10;99.90
62904;DHT22;49000;50.698;13.322;2022-12-07T04:12:52;0.20;99.90
62904;DHT22;49000;50.698;13.322;2022-12-07T04:15:18;-0.40;99.90
62904;DHT22;49000;50.698;13.322;2022-12-07T04:17:43;0.10;99.90
62904;DHT22;49000;50.698;13.322;2022-12-07T04:20:09;0.00;99.90
62904;DHT22;49000;50.698;13.322;2022-12-07T04:22:35;0.00;99.90
62904;DHT22;49000;50.698;13.322;2022-12-07T04:25:01;0.00;99.90
62904;DHT22;49000;50.698;13.322;2022-12-07T04:27:26;0.10;99.90
62904;DHT22;49000;50.698;13.322;2022-12-07T04:29:52;0.00;99.90
62904;DHT22;49000;50.698;13.322;2022-12-07T04:32:18;-0.60;99.90
62904;DHT22;49000;50.698;13.322;2022-12-07T04:34:43;-0.10;99.90
62904;DHT22;49000;50.698;13.322;2022-12-07T04:37:09;-0.30;99.90
62904;DHT22;49000;50.698;13.322;2022-12-07T04:39:35;-0.50;99.90
62904;DHT22;49000;50.698;13.322;2022-12-07T04:42:01;-0.90;99.90
62904;DHT22;49000;50.698;13.322;2022-12-07T04:44:28;-0.30;99.90
62904;DHT22;49000;50.698;13.322;2022-12-07T04:46:54;-0.40;99.90
62904;DHT22;49000;50.698;13.322;2022-12-07T04:49:20;-0.30;99.90
62904;DHT22;49000;50.698;13.322;2022-12-07T04:51:46;-0.20;99.90
62904;DHT22;49000;50.698;13.322;2022-12-07T04:54:13;-0.60;99.90
62904;DHT22;49000;50.698;13.322;2022-12-07T04:56:39;-0.30;99.90
62904;DHT22;49000;50.698;13.322;2022-12-07T04:59:04;-1.00;99.90
62904;DHT22;49000;50.698;13.322;2022-12-07T05:01:30;-0.80;99.90
62904;DHT22;49000;50.698;13.322;2022-12-07T05:03:56;-0.50;99.90
62904;DHT22;49000;50.698;13.322;2022-12-07T05:06:22;-0.40;99.90
62904;DHT22;49000;50.698;13.322;2022-12-07T05:08:47;-0.40;99.90
62904;DHT22;49000;50.698;13.322;2022-12-07T05:11:14;-0.70;99.90
62904;DHT22;49000;50.698;13.322;2022-12-07T05:14:00;-0.60;99.90
62904;DHT22;49000;50.698;13.322;2022-12-07T05:16:26;-0.30;99.90
62904;DHT22;49000;50.698;13.322;2022-12-07T05:18:52;-0.30;99.90
62904;DHT22;49000;50.698;13.322;2022-12-07T05:21:17;-0.10;99.90
62904;DHT22;49000;50.698;13.322;2022-12-07T05:23:43;-0.30;99.90
62904;DHT22;49000;50.698;13.322;2022-12-07T05:26:09;-0.20;99.90
62904;DHT22;49000;50.698;13.322;2022-12-07T05:28:35;-0.30;99.90
62904;DHT22;49000;50.698;13.322;2022-12-07T05:31:00;-0.20;99.90
62904;DHT22;49000;50.698;13.322;2022-12-07T05:33:26;-0.30;99.90
62904;DHT22;49000;50.698;13.322;2022-12-07T05:35:51;-0.30;99.90
62904;DHT22;49000;50.698;13.322;2022-12-07T05:38:17;-0.20;99.90
62904;DHT22;49000;50.698;13.322;2022-12-07T05:40:42;-0.20;99.90
62904;DHT22;49000;50.698;13.322;2022-12-07T05:43:08;-0.10;99.90
62904;DHT22;49000;50.698;13.322;2022-12-07T05:45:33;-0.30;99.90
62904;DHT22;49000;50.698;13.322;2022-12-07T05:47:59;-0.10;99.90
62904;DHT22;49000;50.698;13.322;2022-12-07T05:50:25;-0.50;99.90
62904;DHT22;49000;50.698;13.322;2022-12-07T05:52:50;0.10;99.90
62904;DHT22;49000;50.698;13.322;2022-12-07T05:55:15;-0.10;99.90
62904;DHT22;49000;50.698;13.322;2022-12-07T05:57:41;0.00;99.90
62904;DHT22;49000;50.698;13.322;2022-12-07T06:00:26;-0.50;99.90
62904;DHT22;49000;50.698;13.322;2022-12-07T06:02:52;0.00;99.90
62904;DHT22;49000;50.698;13.322;2022-12-07T06:05:17;0.20;99.90
62904;DHT22;49000;50.698;13.322;2022-12-07T06:07:43;0.00;99.90
62904;DHT22;49000;50.698;13.322;2022-12-07T06:10:09;0.30;99.90
62904;DHT22;49000;50.698;13.322;2022-12-07T06:12:34;0.00;99.90
62904;DHT22;49000;50.698;13.322;2022-12-07T06:15:00;0.30;99.90
62904;DHT22;49000;50.698;13.322;2022-12-07T06:17:26;0.00;99.90
62904;DHT22;49000;50.698;13.322;2022-12-07T06:19:51;0.20;99.90
62904;DHT22;49000;50.698;13.322;2022-12-07T06:22:17;0.10;99.90
62904;DHT22;49000;50.698;13.322;2022-12-07T06:24:43;0.20;99.90
62904;DHT22;49000;50.698;13.322;2022-12-07T06:27:09;0.00;99.90
62904;DHT22;49000;50.698;13.322;2022-12-07T06:29:35;0.00;99.90
62904;DHT22;49000;50.698;13.322;2022-12-07T06:32:01;0.10;99.90
62904;DHT22;49000;50.698;13.322;2022-12-07T06:34:27;0.30;99.90
62904;DHT22;49000;50.698;13.322;2022-12-07T06:36:53;0.10;99.90
62904;DHT22;49000;50.698;13.322;2022-12-07T06:39:29;0.30;99.90
62904;DHT22;49000;50.698;13.322;2022-12-07T06:41:55;-0.20;99.90
62904;DHT22;49000;50.698;13.322;2022-12-07T06:44:22;-0.20;99.90
62904;DHT22;49000;50.698;13.322;2022-12-07T06:46:48;0.20;99.90
62904;DHT22;49000;50.698;13.322;2022-12-07T06:49:14;0.30;99.90
62904;DHT22;49000;50.698;13.322;2022-12-07T06:51:40;0.20;99.90
62904;DHT22;49000;50.698;13.322;2022-12-07T06:54:12;0.20;99.90
62904;DHT22;49000;50.698;13.322;2022-12-07T06:56:38;0.10;99.90
62904;DHT22;49000;50.698;13.322;2022-12-07T06:59:04;0.30;99.90
62904;DHT22;49000;50.698;13.322;2022-12-07T07:01:31;0.20;99.90
62904;DHT22;49000;50.698;13.322;2022-12-07T07:03:57;0.30;99.90
62904;DHT22;49000;50.698;13.322;2022-12-07T07:06:22;0.30;99.90
62904;DHT22;49000;50.698;13.322;2022-12-07T07:08:48;0.50;99.90
62904;DHT22;49000;50.698;13.322;2022-12-07T07:11:14;-0.20;99.90
62904;DHT22;49000;50.698;13.322;2022-12-07T07:13:39;0.20;99.90
62904;DHT22;49000;50.698;13.322;2022-12-07T07:16:05;-0.10;99.90
62904;DHT22;49000;50.698;13.322;2022-12-07T07:18:31;0.50;99.90
62904;DHT22;49000;50.698;13.322;2022-12-07T07:20:57;0.40;99.90
62904;DHT22;49000;50.698;13.322;2022-12-07T07:23:23;0.70;99.90
62904;DHT22;49000;50.698;13.322;2022-12-07T07:25:49;0.70;99.90
62904;DHT22;49000;50.698;13.322;2022-12-07T07:28:15;0.40;99.90
62904;DHT22;49000;50.698;13.322;2022-12-07T07:30:41;0.60;99.90
62904;DHT22;49000;50.698;13.322;2022-12-07T07:33:07;0.80;99.90
62904;DHT22;49000;50.698;13.322;2022-12-07T07:35:33;0.20;99.90
62904;DHT22;49000;50.698;13.322;2022-12-07T07:37:59;0.80;99.90
62904;DHT22;49000;50.698;13.322;2022-12-07T07:40:26;0.20;99.90
62904;DHT22;49000;50.698;13.322;2022-12-07T07:42:53;0.30;99.90
62904;DHT22;49000;50.698;13.322;2022-12-07T07:45:20;0.70;99.90
62904;DHT22;49000;50.698;13.322;2022-12-07T07:47:45;0.30;99.90
62904;DHT22;49000;50.698;13.322;2022-12-07T07:50:11;0.50;99.90
62904;DHT22;49000;50.698;13.322;2022-12-07T07:52:36;0.40;99.90
62904;DHT22;49000;50.698;13.322;2022-12-07T07:55:02;1.00;99.90
62904;DHT22;49000;50.698;13.322;2022-12-07T07:57:28;0.90;99.90
62904;DHT22;49000;50.698;13.322;2022-12-07T07:59:54;0.40;99.90
62904;DHT22;49000;50.698;13.322;2022-12-07T08:02:20;0.80;99.90
62904;DHT22;49000;50.698;13.322;2022-12-07T08:04:47;0.90;99.90
62904;DHT22;49000;50.698;13.322;2022-12-07T08:07:13;0.50;99.90
62904;DHT22;49000;50.698;13.322;2022-12-07T08:09:39;1.00;99.90
62904;DHT22;49000;50.698;13.322;2022-12-07T08:12:05;0.90;99.90
62904;DHT22;49000;50.698;13.322;2022-12-07T08:14:31;1.00;99.90
62904;DHT22;49000;50.698;13.322;2022-12-07T08:16:57;1.10;99.90
62904;DHT22;49000;50.698;13.322;2022-12-07T08:19:23;1.20;99.90
62904;DHT22;49000;50.698;13.322;2022-12-07T08:21:49;1.10;99.90
62904;DHT22;49000;50.698;13.322;2022-12-07T08:24:14;1.20;99.90
62904;DHT22;49000;50.698;13.322;2022-12-07T08:26:41;1.10;99.90
62904;DHT22;49000;50.698;13.322;2022-12-07T08:29:06;1.20;99.90
62904;DHT22;49000;50.698;13.322;2022-12-07T08:31:32;1.00;99.90
62904;DHT22;49000;50.698;13.322;2022-12-07T08:33:57;1.10;99.90
62904;DHT22;49000;50.698;13.322;2022-12-07T08:36:23;1.10;99.90
62904;DHT22;49000;50.698;13.322;2022-12-07T08:38:49;1.10;99.90
62904;DHT22;49000;50.698;13.322;2022-12-07T08:41:15;1.40;99.90
62904;DHT22;49000;50.698;13.322;2022-12-07T08:43:41;1.40;99.90
62904;DHT22;49000;50.698;13.322;2022-12-07T08:46:31;1.00;99.90
62904;DHT22;49000;50.698;13.322;2022-12-07T08:49:06;1.20;99.90
62904;DHT22;49000;50.698;13.322;2022-12-07T08:51:33;1.10;99.90
62904;DHT22;49000;50.698;13.322;2022-12-07T08:54:01;1.20;99.90
62904;DHT22;49000;50.698;13.322;2022-12-07T08:56:28;1.40;99.90
62904;DHT22;49000;50.698;13.322;2022-12-07T08:58:54;1.10;99.90
62904;DHT22;49000;50.698;13.322;2022-12-07T09:01:20;0.80;99.90
62904;DHT22;49000;50.698;13.322;2022-12-07T09:03:45;1.50;99.90
62904;DHT22;49000;50.698;13.322;2022-12-07T09:06:11;0.90;99.90
62904;DHT22;49000;50.698;13.322;2022-12-07T09:08:41;1.70;99.90
62904;DHT22;49000;50.698;13.322;2022-12-07T09:11:08;1.60;99.90
62904;DHT22;49000;50.698;13.322;2022-12-07T09:13:33;1.90;99.90
62904;DHT22;49000;50.698;13.322;2022-12-07T09:15:59;1.60;99.90
62904;DHT22;49000;50.698;13.322;2022-12-07T09:18:24;2.10;99.90
62904;DHT22;49000;50.698;13.322;2022-12-07T09:20:50;2.20;99.90
62904;DHT22;49000;50.698;13.322;2022-12-07T09:23:16;2.20;99.90
62904;DHT22;49000;50.698;13.322;2022-12-07T09:25:41;1.80;99.90
62904;DHT22;49000;50.698;13.322;2022-12-07T09:28:07;2.30;99.90
62904;DHT22;49000;50.698;13.322;2022-12-07T09:30:32;2.20;99.90
62904;DHT22;49000;50.698;13.322;2022-12-07T09:32:59;2.50;99.90
62904;DHT22;49000;50.698;13.322;2022-12-07T09:35:25;2.40;99.90
62904;DHT22;49000;50.698;13.322;2022-12-07T09:37:50;2.30;99.90
62904;DHT22;49000;50.698;13.322;2022-12-07T09:40:18;1.70;99.90
62904;DHT22;49000;50.698;13.322;2022-12-07T09:42:48;2.00;99.90
62904;DHT22;49000;50.698;13.322;2022-12-07T09:45:17;1.80;99.90
62904;DHT22;49000;50.698;13.322;2022-12-07T09:47:44;2.40;99.90
62904;DHT22;49000;50.698;13.322;2022-12-07T09:50:21;2.20;99.90
62904;DHT22;49000;50.698;13.322;2022-12-07T09:52:48;2.20;99.90
62904;DHT22;49000;50.698;13.322;2022-12-07T09:55:41;2.10;99.90
62904;DHT22;49000;50.698;13.322;2022-12-07T09:58:13;2.30;99.90
62904;DHT22;49000;50.698;13.322;2022-12-07T10:00:42;2.30;99.90
62904;DHT22;49000;50.698;13.322;2022-12-07T10:03:08;2.30;99.90
62904;DHT22;49000;50.698;13.322;2022-12-07T10:05:44;2.30;99.90
62904;DHT22;49000;50.698;13.322;2022-12-07T10:08:13;2.00;99.90
62904;DHT22;49000;50.698;13.322;2022-12-07T10:10:41;2.50;99.90
62904;DHT22;49000;50.698;13.322;2022-12-07T10:13:12;2.70;99.90
62904;DHT22;49000;50.698;13.322;2022-12-07T10:15:51;2.40;99.90
62904;DHT22;49000;50.698;13.322;2022-12-07T10:18:38;2.30;99.90
62904;DHT22;49000;50.698;13.322;2022-12-07T10:21:13;2.20;99.90
62904;DHT22;49000;50.698;13.322;2022-12-07T10:23:42;2.00;99.90
62904;DHT22;49000;50.698;13.322;2022-12-07T10:26:36;1.70;99.90
62904;DHT22;49000;50.698;13.322;2022-12-07T10:29:32;2.10;99.90
62904;DHT22;49000;50.698;13.322;2022-12-07T10:32:29;2.40;99.90
62904;DHT22;49000;50.698;13.322;2022-12-07T10:35:36;2.40;99.90
62904;DHT22;49000;50.698;13.322;2022-12-07T10:38:00;2.40;99.90
62904;DHT22;49000;50.698;13.322;2022-12-07T10:40:34;2.50;99.90
62904;DHT22;49000;50.698;13.322;2022-12-07T10:43:19;2.50;99.90
62904;DHT22;49000;50.698;13.322;2022-12-07T10:48:29;2.70;99.90
62904;DHT22;49000;50.698;13.322;2022-12-07T10:51:15;2.40;99.90
62904;DHT22;49000;50.698;13.322;2022-12-07T10:53:57;2.50;99.90
62904;DHT22;49000;50.698;13.322;2022-12-07T10:56:47;2.60;99.90
62904;DHT22;49000;50.698;13.322;2022-12-07T11:04:53;2.60;99.90
62904;DHT22;49000;50.698;13.322;2022-12-07T11:10:08;2.40;99.90
62904;DHT22;49000;50.698;13.322;2022-12-07T11:13:03;2.50;99.90
62904;DHT22;49000;50.698;13.322;2022-12-07T11:21:00;2.30;99.90
62904;DHT22;49000;50.698;13.322;2022-12-07T11:29:15;2.30;99.90
62904;DHT22;49000;50.698;13.322;2022-12-07T11:37:35;2.10;99.90
62904;DHT22;49000;50.698;13.322;2022-12-07T11:40:17;2.30;99.90
62904;DHT22;49000;50.698;13.322;2022-12-07T11:42:52;2.30;99.90
62904;DHT22;49000;50.698;13.322;2022-12-07T11:45:25;2.00;99.90
62904;DHT22;49000;50.698;13.322;2022-12-07T11:47:55;2.10;99.90
62904;DHT22;49000;50.698;13.322;2022-12-07T11:50:46;2.10;99.90
62904;DHT22;49000;50.698;13.322;2022-12-07T11:53:14;2.00;99.90
62904;DHT22;49000;50.698;13.322;2022-12-07T11:58:45;2.00;99.90
62904;DHT22;49000;50.698;13.322;2022-12-07T12:03:56;2.20;99.90
62904;DHT22;49000;50.698;13.322;2022-12-07T12:06:23;1.90;99.90
62904;DHT22;49000;50.698;13.322;2022-12-07T12:23:06;2.30;99.90
62904;DHT22;49000;50.698;13.322;2022-12-07T12:31:13;2.30;99.90
62904;DHT22;49000;50.698;13.322;2022-12-07T12:33:46;2.10;99.90
62904;DHT22;49000;50.698;13.322;2022-12-07T12:39:07;2.00;99.90
62904;DHT22;49000;50.698;13.322;2022-12-07T12:47:02;2.20;99.90
62904;DHT22;49000;50.698;13.322;2022-12-07T12:51:57;2.00;99.90
62904;DHT22;49000;50.698;13.322;2022-12-07T13:05:14;1.70;99.90
62904;DHT22;49000;50.698;13.322;2022-12-07T13:10:33;2.10;99.90
62904;DHT22;49000;50.698;13.322;2022-12-07T13:23:29;1.70;99.90
62904;DHT22;49000;50.698;13.322;2022-12-07T13:26:17;2.00;99.90
62904;DHT22;49000;50.698;13.322;2022-12-07T13:29:35;2.10;99.90
62904;DHT22;49000;50.698;13.322;2022-12-07T13:31:43;2.00;99.90
62904;DHT22;49000;50.698;13.322;2022-12-07T13:34:32;1.90;99.90
62904;DHT22;49000;50.698;13.322;2022-12-07T13:37:00;1.90;99.90
62904;DHT22;49000;50.698;13.322;2022-12-07T13:39:27;1.90;99.90
62904;DHT22;49000;50.698;13.322;2022-12-07T13:41:58;1.90;99.90
62904;DHT22;49000;50.698;13.322;2022-12-07T13:44:26;1.50;99.90
62904;DHT22;49000;50.698;13.322;2022-12-07T13:47:00;2.00;99.90
62904;DHT22;49000;50.698;13.322;2022-12-07T13:49:31;1.60;99.90
62904;DHT22;49000;50.698;13.322;2022-12-07T13:52:30;2.20;99.90
62904;DHT22;49000;50.698;13.322;2022-12-07T13:57:32;2.20;99.90
62904;DHT22;49000;50.698;13.322;2022-12-07T14:00:05;2.10;99.90
62904;DHT22;49000;50.698;13.322;2022-12-07T14:02:33;1.90;99.90
62904;DHT22;49000;50.698;13.322;2022-12-07T14:07:52;1.80;99.90
62904;DHT22;49000;50.698;13.322;2022-12-07T14:10:36;2.00;99.90
62904;DHT22;49000;50.698;13.322;2022-12-07T14:15:50;2.00;99.90
62904;DHT22;49000;50.698;13.322;2022-12-07T14:18:39;1.80;99.90
62904;DHT22;49000;50.698;13.322;2022-12-07T14:23:39;1.70;99.90
62904;DHT22;49000;50.698;13.322;2022-12-07T14:26:10;1.90;99.90
62904;DHT22;49000;50.698;13.322;2022-12-07T14:28:37;1.90;99.90
62904;DHT22;49000;50.698;13.322;2022-12-07T14:31:03;1.80;99.90
62904;DHT22;49000;50.698;13.322;2022-12-07T14:33:32;1.90;99.90
62904;DHT22;49000;50.698;13.322;2022-12-07T14:35:58;1.40;99.90
62904;DHT22;49000;50.698;13.322;2022-12-07T14:38:24;1.30;99.90
62904;DHT22;49000;50.698;13.322;2022-12-07T14:40:51;1.80;99.90
62904;DHT22;49000;50.698;13.322;2022-12-07T14:43:18;1.60;99.90
62904;DHT22;49000;50.698;13.322;2022-12-07T14:45:44;1.80;99.90
62904;DHT22;49000;50.698;13.322;2022-12-07T14:48:14;1.80;99.90
62904;DHT22;49000;50.698;13.322;2022-12-07T14:50:43;1.80;99.90
62904;DHT22;49000;50.698;13.322;2022-12-07T14:53:14;1.80;99.90
62904;DHT22;49000;50.698;13.322;2022-12-07T14:55:40;1.80;99.90
62904;DHT22;49000;50.698;13.322;2022-12-07T14:58:06;1.30;99.90
62904;DHT22;49000;50.698;13.322;2022-12-07T15:00:33;1.70;99.90
62904;DHT22;49000;50.698;13.322;2022-12-07T15:02:59;1.80;99.90
62904;DHT22;49000;50.698;13.322;2022-12-07T15:05:25;1.30;99.90
62904;DHT22;49000;50.698;13.322;2022-12-07T15:07:51;1.30;99.90
62904;DHT22;49000;50.698;13.322;2022-12-07T15:10:22;1.60;99.90
62904;DHT22;49000;50.698;13.322;2022-12-07T15:12:48;1.80;99.90
62904;DHT22;49000;50.698;13.322;2022-12-07T15:15:13;1.60;99.90
62904;DHT22;49000;50.698;13.322;2022-12-07T15:17:39;1.50;99.90
62904;DHT22;49000;50.698;13.322;2022-12-07T15:20:05;1.50;99.90
62904;DHT22;49000;50.698;13.322;2022-12-07T15:22:33;1.70;99.90
62904;DHT22;49000;50.698;13.322;2022-12-07T15:24:58;1.80;99.90
62904;DHT22;49000;50.698;13.322;2022-12-07T15:27:24;1.50;99.90
62904;DHT22;49000;50.698;13.322;2022-12-07T15:29:49;1.60;99.90
62904;DHT22;49000;50.698;13.322;2022-12-07T15:32:15;1.50;99.90
62904;DHT22;49000;50.698;13.322;2022-12-07T15:34:40;1.20;99.90
62904;DHT22;49000;50.698;13.322;2022-12-07T15:37:07;1.20;99.90
62904;DHT22;49000;50.698;13.322;2022-12-07T15:39:33;1.60;99.90
62904;DHT22;49000;50.698;13.322;2022-12-07T15:41:58;1.60;99.90
62904;DHT22;49000;50.698;13.322;2022-12-07T15:44:24;1.40;99.90
62904;DHT22;49000;50.698;13.322;2022-12-07T15:47:08;1.60;99.90
62904;DHT22;49000;50.698;13.322;2022-12-07T15:49:34;1.30;99.90
62904;DHT22;49000;50.698;13.322;2022-12-07T15:51:59;1.50;99.90
62904;DHT22;49000;50.698;13.322;2022-12-07T15:54:29;1.50;99.90
62904;DHT22;49000;50.698;13.322;2022-12-07T15:56:55;1.40;99.90
62904;DHT22;49000;50.698;13.322;2022-12-07T15:59:21;1.20;99.90
62904;DHT22;49000;50.698;13.322;2022-12-07T16:01:47;1.30;99.90
62904;DHT22;49000;50.698;13.322;2022-12-07T16:04:12;1.40;99.90
62904;DHT22;49000;50.698;13.322;2022-12-07T16:06:38;1.40;99.90
62904;DHT22;49000;50.698;13.322;2022-12-07T16:09:04;1.20;99.90
62904;DHT22;49000;50.698;13.322;2022-12-07T16:11:30;1.30;99.90
62904;DHT22;49000;50.698;13.322;2022-12-07T16:13:56;1.30;99.90
62904;DHT22;49000;50.698;13.322;2022-12-07T16:16:22;1.30;99.90
62904;DHT22;49000;50.698;13.322;2022-12-07T16:18:49;0.90;99.90
62904;DHT22;49000;50.698;13.322;2022-12-07T16:21:15;1.30;99.90
62904;DHT22;49000;50.698;13.322;2022-12-07T16:23:41;1.30;99.90
62904;DHT22;49000;50.698;13.322;2022-12-07T16:26:13;1.40;99.90
62904;DHT22;49000;50.698;13.322;2022-12-07T16:28:39;1.20;99.90
62904;DHT22;49000;50.698;13.322;2022-12-07T16:31:08;1.30;99.90
62904;DHT22;49000;50.698;13.322;2022-12-07T16:33:35;1.30;99.90
62904;DHT22;49000;50.698;13.322;2022-12-07T16:36:01;0.60;99.90
62904;DHT22;49000;50.698;13.322;2022-12-07T16:38:26;1.20;99.90
62904;DHT22;49000;50.698;13.322;2022-12-07T16:40:53;0.90;99.90
62904;DHT22;49000;50.698;13.322;2022-12-07T16:43:18;1.20;99.90
62904;DHT22;49000;50.698;13.322;2022-12-07T16:45:46;1.00;99.90
62904;DHT22;49000;50.698;13.322;2022-12-07T16:48:12;1.20;99.90
62904;DHT22;49000;50.698;13.322;2022-12-07T16:50:42;1.40;99.90
62904;DHT22;49000;50.698;13.322;2022-12-07T16:53:11;0.70;99.90
62904;DHT22;49000;50.698;13.322;2022-12-07T16:55:39;1.30;99.90
62904;DHT22;49000;50.698;13.322;2022-12-07T16:58:05;1.20;99.90
62904;DHT22;49000;50.698;13.322;2022-12-07T17:00:31;1.30;99.90
62904;DHT22;49000;50.698;13.322;2022-12-07T17:02:56;1.30;99.90
62904;DHT22;49000;50.698;13.322;2022-12-07T17:05:22;1.10;99.90
62904;DHT22;49000;50.698;13.322;2022-12-07T17:07:49;1.20;99.90
62904;DHT22;49000;50.698;13.322;2022-12-07T17:10:14;1.10;99.90
62904;DHT22;49000;50.698;13.322;2022-12-07T17:12:40;1.30;99.90
62904;DHT22;49000;50.698;13.322;2022-12-07T17:15:05;1.30;99.90
62904;DHT22;49000;50.698;13.322;2022-12-07T17:17:51;1.30;99.90
62904;DHT22;49000;50.698;13.322;2022-12-07T17:20:18;0.90;99.90
62904;DHT22;49000;50.698;13.322;2022-12-07T17:22:44;1.10;99.90
62904;DHT22;49000;50.698;13.322;2022-12-07T17:25:10;1.30;99.90
62904;DHT22;49000;50.698;13.322;2022-12-07T17:27:36;0.80;99.90
62904;DHT22;49000;50.698;13.322;2022-12-07T17:30:04;1.30;99.90
62904;DHT22;49000;50.698;13.322;2022-12-07T17:32:30;1.30;99.90